sensor_id;sensor_type;location;lat;lon;timestamp;pressure;altitude;pressure_sealevel;temperature;humidity
19748;BME280;10032;51.386;12.516;2023-03-22T00:02:20;99906.28;;;11.23;100.00
19748;BME280;10032;51.386;12.516;2023-03-22T00:04:47;99896.22;;;11.19;100.00
19748;BME280;10032;51.386;12.516;2023-03-22T00:07:12;99891.03;;;11.12;100.00
19748;BME280;10032;51.386;12.516;2023-03-22T00:09:38;99889.91;;;11.08;100.00
19748;BME280;10032;51.386;12.516;2023-03-22T00:12:04;99884.19;;;11.05;100.00
19748;BME280;10032;51.386;12.516;2023-03-22T00:14:29;99881.19;;;11.01;100.00
19748;BME280;10032;51.386;12.516;2023-03-22T00:16:55;99863.25;;;10.95;100.00
19748;BME280;10032;51.386;12.516;2023-03-22T00:19:20;99862.66;;;10.93;100.00
19748;BME280;10032;51.386;12.516;2023-03-22T00:21:46;99861.88;;;10.93;100.00
19748;BME280;10032;51.386;12.516;2023-03-22T00:24:11;99868.38;;;10.97;100.00
19748;BME280;10032;51.386;12.516;2023-03-22T00:26:37;99867.59;;;10.96;100.00
19748;BME280;10032;51.386;12.516;2023-03-22T00:29:03;99866.47;;;10.92;100.00
19748;BME280;10032;51.386;12.516;2023-03-22T00:31:29;99860.50;;;10.90;100.00
19748;BME280;10032;51.386;12.516;2023-03-22T00:33:54;99868.63;;;10.90;100.00
19748;BME280;10032;51.386;12.516;2023-03-22T00:36:20;99869.13;;;10.87;100.00
19748;BME280;10032;51.386;12.516;2023-03-22T00:38:45;99867.44;;;10.81;100.00
19748;BME280;10032;51.386;12.516;2023-03-22T00:41:12;99856.06;;;10.79;100.00
19748;BME280;10032;51.386;12.516;2023-03-22T00:43:38;99860.09;;;10.77;100.00
19748;BME280;10032;51.386;12.516;2023-03-22T00:46:04;99863.06;;;10.75;100.00
19748;BME280;10032;51.386;12.516;2023-03-22T00:48:30;99852.72;;;10.72;100.00
19748;BME280;10032;51.386;12.516;2023-03-22T00:50:55;99855.69;;;10.71;100.00
19748;BME280;10032;51.386;12.516;2023-03-22T00:53:21;99864.41;;;10.73;100.00
19748;BME280;10032;51.386;12.516;2023-03-22T00:55:46;99863.03;;;10.70;100.00
19748;BME280;10032;51.386;12.516;2023-03-22T00:58:11;99857.81;;;10.64;100.00
19748;BME280;10032;51.386;12.516;2023-03-22T01:00:37;99855.41;;;10.67;100.00
19748;BME280;10032;51.386;12.516;2023-03-22T01:03:02;99854.59;;;10.67;100.00
19748;BME280;10032;51.386;12.516;2023-03-22T01:05:33;99857.84;;;10.69;100.00
19748;BME280;10032;51.386;12.516;2023-03-22T01:08:03;99847.53;;;10.66;100.00
19748;BME280;10032;51.386;12.516;2023-03-22T01:10:34;99841.81;;;10.62;100.00
19748;BME280;10032;51.386;12.516;2023-03-22T01:12:59;99842.59;;;10.58;100.00
19748;BME280;10032;51.386;12.516;2023-03-22T01:15:25;99834.41;;;10.53;100.00
19748;BME280;10032;51.386;12.516;2023-03-22T01:17:51;99842.28;;;10.54;100.00
19748;BME280;10032;51.386;12.516;2023-03-22T01:20:16;99833.06;;;10.55;100.00
19748;BME280;10032;51.386;12.516;2023-03-22T01:22:42;99838.44;;;10.50;100.00
19748;BME280;10032;51.386;12.516;2023-03-22T01:25:08;99843.31;;;10.48;100.00
19748;BME280;10032;51.386;12.516;2023-03-22T01:27:33;99841.94;;;10.46;100.00
19748;BME280;10032;51.386;12.516;2023-03-22T01:29:59;99835.19;;;10.48;100.00
19748;BME280;10032;51.386;12.516;2023-03-22T01:32:24;99840.03;;;10.46;100.00
19748;BME280;10032;51.386;12.516;2023-03-22T01:34:50;99833.22;;;10.44;100.00
19748;BME280;10032;51.386;12.516;2023-03-22T01:37:16;99843.50;;;10.42;100.00
19748;BME280;10032;51.386;12.516;2023-03-22T01:39:42;99834.56;;;10.41;100.00
19748;BME280;10032;51.386;12.516;2023-03-22T01:42:14;99841.34;;;10.44;100.00
19748;BME280;10032;51.386;12.516;2023-03-22T01:44:43;99829.69;;;10.38;100.00
19748;BME280;10032;51.386;12.516;2023-03-22T01:47:09;99826.72;;;10.40;100.00
19748;BME280;10032;51.386;12.516;2023-03-22T01:49:35;99835.84;;;10.34;100.00
19748;BME280;10032;51.386;12.516;2023-03-22T01:52:12;99822.56;;;10.32;100.00
19748;BME280;10032;51.386;12.516;2023-03-22T01:54:42;99822.53;;;10.27;100.00
19748;BME280;10032;51.386;12.516;2023-03-22T01:57:10;99815.72;;;10.25;100.00
19748;BME280;10032;51.386;12.516;2023-03-22T01:59:35;99814.91;;;10.24;100.00
19748;BME280;10032;51.386;12.516;2023-03-22T02:02:01;99814.03;;;10.19;100.00
19748;BME280;10032;51.386;12.516;2023-03-22T02:04:31;99816.41;;;10.15;100.00
19748;BME280;10032;51.386;12.516;2023-03-22T02:07:01;99811.78;;;10.11;100.00
19748;BME280;10032;51.386;12.516;2023-03-22T02:09:36;99809.25;;;10.04;100.00
19748;BME280;10032;51.386;12.516;2023-03-22T02:12:25;99815.19;;;10.01;100.00
19748;BME280;10032;51.386;12.516;2023-03-22T02:34:31;99800.03;;;9.57;100.00
19748;BME280;10032;51.386;12.516;2023-03-22T02:52:46;99801.97;;;9.40;100.00
19748;BME280;10032;51.386;12.516;2023-03-22T02:55:23;99804.91;;;9.39;100.00
19748;BME280;10032;51.386;12.516;2023-03-22T02:57:58;99810.66;;;9.42;100.00
19748;BME280;10032;51.386;12.516;2023-03-22T03:00:26;99803.03;;;9.39;100.00
19748;BME280;10032;51.386;12.516;2023-03-22T03:02:55;99804.44;;;9.42;100.00
19748;BME280;10032;51.386;12.516;2023-03-22T03:05:25;99806.31;;;9.41;100.00
19748;BME280;10032;51.386;12.516;2023-03-22T03:07:56;99807.63;;;9.39;100.00
19748;BME280;10032;51.386;12.516;2023-03-22T03:10:24;99811.41;;;9.38;100.00
19748;BME280;10032;51.386;12.516;2023-03-22T03:12:50;99807.06;;;9.37;100.00
19748;BME280;10032;51.386;12.516;2023-03-22T03:15:19;99811.41;;;9.38;100.00
19748;BME280;10032;51.386;12.516;2023-03-22T03:26:14;99808.75;;;9.43;100.00
19748;BME280;10032;51.386;12.516;2023-03-22T03:29:00;99804.75;;;9.45;100.00
19748;BME280;10032;51.386;12.516;2023-03-22T03:32:32;99798.56;;;9.50;100.00
19748;BME280;10032;51.386;12.516;2023-03-22T03:34:32;99798.31;;;9.51;100.00
19748;BME280;10032;51.386;12.516;2023-03-22T03:37:10;99806.44;;;9.51;100.00
19748;BME280;10032;51.386;12.516;2023-03-22T03:39:43;99799.16;;;9.52;100.00
19748;BME280;10032;51.386;12.516;2023-03-22T03:42:14;99798.91;;;9.53;100.00
19748;BME280;10032;51.386;12.516;2023-03-22T03:44:41;99800.53;;;9.54;100.00
19748;BME280;10032;51.386;12.516;2023-03-22T03:47:07;99802.16;;;9.55;100.00
19748;BME280;10032;51.386;12.516;2023-03-22T03:49:35;99798.41;;;9.56;100.00
19748;BME280;10032;51.386;12.516;2023-03-22T03:52:00;99797.25;;;9.52;100.00
19748;BME280;10032;51.386;12.516;2023-03-22T03:54:28;99803.72;;;9.51;100.00
19748;BME280;10032;51.386;12.516;2023-03-22T03:56:53;99799.41;;;9.50;100.00
19748;BME280;10032;51.386;12.516;2023-03-22T03:59:19;99795.63;;;9.51;100.00
19748;BME280;10032;51.386;12.516;2023-03-22T04:01:47;99790.22;;;9.51;100.00
19748;BME280;10032;51.386;12.516;2023-03-22T04:04:22;99792.44;;;9.54;100.00
19748;BME280;10032;51.386;12.516;2023-03-22T04:06:57;99788.09;;;9.53;100.00
19748;BME280;10032;51.386;12.516;2023-03-22T04:09:28;99795.94;;;9.55;100.00
19748;BME280;10032;51.386;12.516;2023-03-22T04:11:55;99787.03;;;9.54;100.00
19748;BME280;10032;51.386;12.516;2023-03-22T04:14:22;99787.25;;;9.53;100.00
19748;BME280;10032;51.386;12.516;2023-03-22T04:16:47;99782.69;;;9.53;100.00
19748;BME280;10032;51.386;12.516;2023-03-22T04:19:13;99791.34;;;9.55;100.00
19748;BME280;10032;51.386;12.516;2023-03-22T04:21:39;99789.22;;;9.57;100.00
19748;BME280;10032;51.386;12.516;2023-03-22T04:24:04;99781.69;;;9.59;100.00
19748;BME280;10032;51.386;12.516;2023-03-22T04:26:30;99787.63;;;9.61;100.00
19748;BME280;10032;51.386;12.516;2023-03-22T04:28:56;99777.41;;;9.63;100.00
19748;BME280;10032;51.386;12.516;2023-03-22T04:31:23;99781.16;;;9.62;100.00
19748;BME280;10032;51.386;12.516;2023-03-22T04:33:49;99775.75;;;9.62;100.00
19748;BME280;10032;51.386;12.516;2023-03-22T04:36:19;99777.91;;;9.60;100.00
19748;BME280;10032;51.386;12.516;2023-03-22T04:38:45;99772.00;;;9.63;100.00
19748;BME280;10032;51.386;12.516;2023-03-22T04:41:10;99777.13;;;9.65;100.00
19748;BME280;10032;51.386;12.516;2023-03-22T04:43:36;99766.59;;;9.63;100.00
19748;BME280;10032;51.386;12.516;2023-03-22T04:46:07;99771.72;;;9.65;100.00
19748;BME280;10032;51.386;12.516;2023-03-22T04:48:39;99770.91;;;9.64;100.00
19748;BME280;10032;51.386;12.516;2023-03-22T04:51:06;99764.69;;;9.64;100.00
19748;BME280;10032;51.386;12.516;2023-03-22T04:53:32;99757.88;;;9.61;100.00
19748;BME280;10032;51.386;12.516;2023-03-22T04:56:07;99758.41;;;9.58;100.00
19748;BME280;10032;51.386;12.516;2023-03-22T04:58:34;99751.34;;;9.57;100.00
19748;BME280;10032;51.386;12.516;2023-03-22T05:01:01;99756.19;;;9.55;100.00
19748;BME280;10032;51.386;12.516;2023-03-22T05:03:27;99762.38;;;9.51;100.00
19748;BME280;10032;51.386;12.516;2023-03-22T05:05:54;99757.75;;;9.51;100.00
19748;BME280;10032;51.386;12.516;2023-03-22T05:08:22;99751.03;;;9.54;100.00
19748;BME280;10032;51.386;12.516;2023-03-22T05:10:52;99752.66;;;9.55;100.00
19748;BME280;10032;51.386;12.516;2023-03-22T05:13:18;99754.31;;;9.56;100.00
19748;BME280;10032;51.386;12.516;2023-03-22T05:15:44;99765.63;;;9.53;100.00
19748;BME280;10032;51.386;12.516;2023-03-22T05:18:11;99758.34;;;9.53;100.00
19748;BME280;10032;51.386;12.516;2023-03-22T05:20:39;99764.81;;;9.52;100.00
19748;BME280;10032;51.386;12.516;2023-03-22T05:23:05;99755.91;;;9.52;100.00
19748;BME280;10032;51.386;12.516;2023-03-22T05:25:30;99747.19;;;9.50;100.00
19748;BME280;10032;51.386;12.516;2023-03-22T05:27:56;99751.56;;;9.51;100.00
19748;BME280;10032;51.386;12.516;2023-03-22T05:30:26;99752.66;;;9.55;100.00
19748;BME280;10032;51.386;12.516;2023-03-22T05:32:56;99746.75;;;9.58;100.00
19748;BME280;10032;51.386;12.516;2023-03-22T05:35:24;99743.81;;;9.59;100.00
19748;BME280;10032;51.386;12.516;2023-03-22T05:37:50;99746.56;;;9.64;100.00
19748;BME280;10032;51.386;12.516;2023-03-22T05:40:16;99749.53;;;9.63;100.00
19748;BME280;10032;51.386;12.516;2023-03-22T05:42:41;99746.81;;;9.63;100.00
19748;BME280;10032;51.386;12.516;2023-03-22T05:45:07;99747.91;;;9.62;100.00
19748;BME280;10032;51.386;12.516;2023-03-22T05:47:33;99749.53;;;9.63;100.00
19748;BME280;10032;51.386;12.516;2023-03-22T05:49:59;99742.97;;;9.59;100.00
19748;BME280;10032;51.386;12.516;2023-03-22T05:52:24;99742.97;;;9.59;100.00
19748;BME280;10032;51.386;12.516;2023-03-22T05:54:50;99745.94;;;9.57;100.00
19748;BME280;10032;51.386;12.516;2023-03-22T05:57:15;99747.84;;;9.57;100.00
19748;BME280;10032;51.386;12.516;2023-03-22T05:59:41;99746.22;;;9.56;100.00
19748;BME280;10032;51.386;12.516;2023-03-22T06:02:07;99744.31;;;9.56;100.00
19748;BME280;10032;51.386;12.516;2023-03-22T06:04:32;99742.19;;;9.58;100.00
19748;BME280;10032;51.386;12.516;2023-03-22T06:06:57;99745.19;;;9.62;100.00
19748;BME280;10032;51.386;12.516;2023-03-22T06:09:23;99750.34;;;9.63;100.00
19748;BME280;10032;51.386;12.516;2023-03-22T06:11:48;99746.81;;;9.63;100.00
19748;BME280;10032;51.386;12.516;2023-03-22T06:14:14;99739.56;;;9.68;100.00
19748;BME280;10032;51.386;12.516;2023-03-22T06:16:40;99734.22;;;9.73;100.00
19748;BME280;10032;51.386;12.516;2023-03-22T06:19:05;99736.19;;;9.78;100.00
19748;BME280;10032;51.386;12.516;2023-03-22T06:21:31;99753.22;;;9.78;100.00
19748;BME280;10032;51.386;12.516;2023-03-22T06:23:56;99760.78;;;9.76;100.00
19748;BME280;10032;51.386;12.516;2023-03-22T06:26:21;99757.56;;;9.79;100.00
19748;BME280;10032;51.386;12.516;2023-03-22T06:28:47;99758.94;;;9.82;100.00
19748;BME280;10032;51.386;12.516;2023-03-22T06:31:12;99758.94;;;9.82;100.00
19748;BME280;10032;51.386;12.516;2023-03-22T06:33:38;99766.28;;;9.86;100.00
19748;BME280;10032;51.386;12.516;2023-03-22T06:36:03;99771.47;;;9.88;100.00
19748;BME280;10032;51.386;12.516;2023-03-22T06:38:29;99767.44;;;9.90;100.00
19748;BME280;10032;51.386;12.516;2023-03-22T06:40:55;99775.06;;;9.98;100.00
19748;BME280;10032;51.386;12.516;2023-03-22T06:43:20;99774.56;;;10.01;100.00
19748;BME280;10032;51.386;12.516;2023-03-22T06:45:46;99771.97;;;10.06;100.00
19748;BME280;10032;51.386;12.516;2023-03-22T06:48:12;99774.13;;;10.09;100.00
19748;BME280;10032;51.386;12.516;2023-03-22T06:50:37;99775.53;;;10.12;100.00
19748;BME280;10032;51.386;12.516;2023-03-22T06:53:06;99776.41;;;10.17;100.00
19748;BME280;10032;51.386;12.516;2023-03-22T06:55:31;99779.16;;;10.22;100.00
19748;BME280;10032;51.386;12.516;2023-03-22T06:58:00;99781.34;;;10.25;100.00
19748;BME280;10032;51.386;12.516;2023-03-22T07:00:25;99784.91;;;10.31;100.00
19748;BME280;10032;51.386;12.516;2023-03-22T07:02:51;99776.00;;;10.35;100.00
19748;BME280;10032;51.386;12.516;2023-03-22T07:05:16;99778.28;;;10.43;100.00
19748;BME280;10032;51.386;12.516;2023-03-22T07:07:42;99776.19;;;10.55;100.00
19748;BME280;10032;51.386;12.516;2023-03-22T07:10:08;99776.28;;;10.65;100.00
19748;BME280;10032;51.386;12.516;2023-03-22T07:12:33;99780.66;;;10.71;100.00
19748;BME280;10032;51.386;12.516;2023-03-22T07:14:59;99770.69;;;10.82;100.00
19748;BME280;10032;51.386;12.516;2023-03-22T07:17:24;99770.72;;;10.87;100.00
19748;BME280;10032;51.386;12.516;2023-03-22T07:19:50;99757.50;;;10.90;100.00
19748;BME280;10032;51.386;12.516;2023-03-22T07:22:15;99762.44;;;11.03;100.00
19748;BME280;10032;51.386;12.516;2023-03-22T07:24:41;99756.53;;;11.06;100.00
19748;BME280;10032;51.386;12.516;2023-03-22T07:27:06;99757.91;;;11.14;100.00
19748;BME280;10032;51.386;12.516;2023-03-22T07:29:32;99752.25;;;11.20;100.00
19748;BME280;10032;51.386;12.516;2023-03-22T07:31:57;99754.19;;;11.25;100.00
19748;BME280;10032;51.386;12.516;2023-03-22T07:34:23;99752.91;;;11.37;100.00
19748;BME280;10032;51.386;12.516;2023-03-22T07:36:48;99759.41;;;11.46;100.00
19748;BME280;10032;51.386;12.516;2023-03-22T07:39:14;99750.84;;;11.59;100.00
19748;BME280;10032;51.386;12.516;2023-03-22T07:41:39;99754.97;;;11.72;100.00
19748;BME280;10032;51.386;12.516;2023-03-22T07:44:05;99750.88;;;11.79;100.00
19748;BME280;10032;51.386;12.516;2023-03-22T07:46:31;99752.56;;;11.85;100.00
19748;BME280;10032;51.386;12.516;2023-03-22T07:48:57;99753.94;;;11.93;100.00
19748;BME280;10032;51.386;12.516;2023-03-22T07:51:22;99749.84;;;12.00;100.00
19748;BME280;10032;51.386;12.516;2023-03-22T07:53:47;99751.78;;;12.10;100.00
19748;BME280;10032;51.386;12.516;2023-03-22T07:56:13;99756.41;;;12.19;100.00
19748;BME280;10032;51.386;12.516;2023-03-22T07:58:38;99753.19;;;12.32;100.00
19748;BME280;10032;51.386;12.516;2023-03-22T08:01:05;99744.47;;;12.40;100.00
19748;BME280;10032;51.386;12.516;2023-03-22T08:03:34;99748.81;;;12.56;100.00
19748;BME280;10032;51.386;12.516;2023-03-22T08:06:01;99745.03;;;12.62;100.00
19748;BME280;10032;51.386;12.516;2023-03-22T08:08:31;99736.84;;;12.77;100.00
19748;BME280;10032;51.386;12.516;2023-03-22T08:10:57;99734.13;;;12.97;100.00
19748;BME280;10032;51.386;12.516;2023-03-22T08:13:22;99732.50;;;13.06;100.00
19748;BME280;10032;51.386;12.516;2023-03-22T08:15:48;99736.50;;;13.19;100.00
19748;BME280;10032;51.386;12.516;2023-03-22T08:18:13;99739.78;;;13.31;100.00
19748;BME280;10032;51.386;12.516;2023-03-22T08:20:39;99739.97;;;13.49;100.00
19748;BME280;10032;51.386;12.516;2023-03-22T08:23:06;99739.84;;;13.69;100.00
19748;BME280;10032;51.386;12.516;2023-03-22T08:25:35;99742.81;;;13.83;100.00
19748;BME280;10032;51.386;12.516;2023-03-22T08:28:01;99749.81;;;13.94;100.00
19748;BME280;10032;51.386;12.516;2023-03-22T08:30:26;99755.44;;;14.12;100.00
19748;BME280;10032;51.386;12.516;2023-03-22T08:32:52;99758.06;;;14.27;100.00
19748;BME280;10032;51.386;12.516;2023-03-22T08:35:17;99755.63;;;14.31;100.00
19748;BME280;10032;51.386;12.516;2023-03-22T08:37:43;99755.28;;;14.37;100.00
19748;BME280;10032;51.386;12.516;2023-03-22T08:40:08;99748.91;;;14.52;100.00
19748;BME280;10032;51.386;12.516;2023-03-22T08:42:35;99737.56;;;14.68;100.00
19748;BME280;10032;51.386;12.516;2023-03-22T08:45:01;99745.09;;;14.81;100.00
19748;BME280;10032;51.386;12.516;2023-03-22T08:47:26;99742.25;;;14.96;100.00
19748;BME280;10032;51.386;12.516;2023-03-22T08:49:51;99741.59;;;15.04;100.00
19748;BME280;10032;51.386;12.516;2023-03-22T08:52:17;99742.06;;;15.11;100.00
19748;BME280;10032;51.386;12.516;2023-03-22T08:54:42;99736.56;;;15.16;100.00
19748;BME280;10032;51.386;12.516;2023-03-22T08:57:09;99743.00;;;15.25;100.00
19748;BME280;10032;51.386;12.516;2023-03-22T08:59:35;99730.63;;;15.38;100.00
19748;BME280;10032;51.386;12.516;2023-03-22T09:02:00;99725.25;;;15.51;100.00
19748;BME280;10032;51.386;12.516;2023-03-22T09:04:25;99733.44;;;15.51;100.00
19748;BME280;10032;51.386;12.516;2023-03-22T09:06:51;99718.63;;;15.57;100.00
19748;BME280;10032;51.386;12.516;2023-03-22T09:09:16;99711.94;;;15.68;100.00
19748;BME280;10032;51.386;12.516;2023-03-22T09:11:42;99708.56;;;15.76;100.00
19748;BME280;10032;51.386;12.516;2023-03-22T09:14:08;99705.06;;;15.89;100.00
19748;BME280;10032;51.386;12.516;2023-03-22T09:16:34;99696.72;;;15.99;100.00
19748;BME280;10032;51.386;12.516;2023-03-22T09:18:59;99691.19;;;16.04;100.00
19748;BME280;10032;51.386;12.516;2023-03-22T09:21:25;99691.13;;;16.09;100.00
19748;BME280;10032;51.386;12.516;2023-03-22T09:23:51;99680.53;;;16.21;100.00
19748;BME280;10032;51.386;12.516;2023-03-22T09:26:17;99685.84;;;16.31;100.00
19748;BME280;10032;51.386;12.516;2023-03-22T09:28:42;99685.63;;;16.46;100.00
19748;BME280;10032;51.386;12.516;2023-03-22T09:31:09;99676.53;;;16.64;100.00
19748;BME280;10032;51.386;12.516;2023-03-22T09:33:36;99679.09;;;16.74;100.00
19748;BME280;10032;51.386;12.516;2023-03-22T09:36:03;99680.75;;;16.89;100.00
19748;BME280;10032;51.386;12.516;2023-03-22T09:38:28;99676.94;;;17.03;100.00
19748;BME280;10032;51.386;12.516;2023-03-22T09:41:04;99677.13;;;17.20;100.00
19748;BME280;10032;51.386;12.516;2023-03-22T09:43:36;99673.50;;;17.38;100.00
19748;BME280;10032;51.386;12.516;2023-03-22T09:46:05;99668.81;;;17.52;100.00
19748;BME280;10032;51.386;12.516;2023-03-22T09:48:36;99668.84;;;17.39;100.00
19748;BME280;10032;51.386;12.516;2023-03-22T09:51:05;99671.88;;;17.51;100.00
19748;BME280;10032;51.386;12.516;2023-03-22T09:53:32;99666.38;;;17.51;100.00
19748;BME280;10032;51.386;12.516;2023-03-22T09:56:25;99659.03;;;17.73;100.00
19748;BME280;10032;51.386;12.516;2023-03-22T09:59:02;99661.06;;;17.81;100.00
19748;BME280;10032;51.386;12.516;2023-03-22T10:02:21;99664.41;;;17.78;100.00
19748;BME280;10032;51.386;12.516;2023-03-22T10:07:03;99646.69;;;17.98;100.00
19748;BME280;10032;51.386;12.516;2023-03-22T10:15:04;99643.31;;;18.36;100.00
19748;BME280;10032;51.386;12.516;2023-03-22T10:17:30;99638.94;;;18.35;100.00
19748;BME280;10032;51.386;12.516;2023-03-22T10:20:07;99633.31;;;18.18;100.00
19748;BME280;10032;51.386;12.516;2023-03-22T10:22:40;99644.31;;;18.05;100.00
19748;BME280;10032;51.386;12.516;2023-03-22T10:25:08;99627.19;;;18.21;100.00
19748;BME280;10032;51.386;12.516;2023-03-22T10:27:34;99626.56;;;18.24;100.00
19748;BME280;10032;51.386;12.516;2023-03-22T10:30:21;99621.34;;;18.14;100.00
19748;BME280;10032;51.386;12.516;2023-03-22T10:32:51;99607.81;;;18.18;100.00
19748;BME280;10032;51.386;12.516;2023-03-22T10:35:19;99616.69;;;18.67;100.00
19748;BME280;10032;51.386;12.516;2023-03-22T10:37:47;99613.84;;;18.81;100.00
19748;BME280;10032;51.386;12.516;2023-03-22T10:40:25;99619.59;;;18.71;100.00
19748;BME280;10032;51.386;12.516;2023-03-22T10:42:58;99616.75;;;18.45;100.00
19748;BME280;10032;51.386;12.516;2023-03-22T10:45:24;99607.28;;;18.60;100.00
19748;BME280;10032;51.386;12.516;2023-03-22T10:50:29;99594.03;;;18.92;100.00
19748;BME280;10032;51.386;12.516;2023-03-22T10:56:02;99593.31;;;18.78;100.00
19748;BME280;10032;51.386;12.516;2023-03-22T10:58:30;99597.22;;;18.77;97.08
19748;BME280;10032;51.386;12.516;2023-03-22T11:00:58;99592.09;;;19.01;99.52
19748;BME280;10032;51.386;12.516;2023-03-22T11:03:35;99590.47;;;18.92;96.18
19748;BME280;10032;51.386;12.516;2023-03-22T11:08:37;99587.50;;;18.71;96.76
19748;BME280;10032;51.386;12.516;2023-03-22T11:11:05;99585.00;;;19.00;97.26
19748;BME280;10032;51.386;12.516;2023-03-22T11:13:32;99585.81;;;18.92;90.28
19748;BME280;10032;51.386;12.516;2023-03-22T11:16:01;99584.13;;;18.83;91.40
19748;BME280;10032;51.386;12.516;2023-03-22T11:18:31;99582.63;;;18.68;88.07
19748;BME280;10032;51.386;12.516;2023-03-22T11:21:09;99581.75;;;18.59;90.08
19748;BME280;10032;51.386;12.516;2023-03-22T11:23:36;99584.09;;;18.74;89.19
19748;BME280;10032;51.386;12.516;2023-03-22T11:26:09;99587.72;;;18.92;88.35
19748;BME280;10032;51.386;12.516;2023-03-22T11:28:47;99583.28;;;19.13;87.28
19748;BME280;10032;51.386;12.516;2023-03-22T11:31:15;99578.69;;;19.00;85.95
19748;BME280;10032;51.386;12.516;2023-03-22T11:36:21;99575.06;;;18.74;84.03
19748;BME280;10032;51.386;12.516;2023-03-22T11:38:47;99575.25;;;18.77;85.97
19748;BME280;10032;51.386;12.516;2023-03-22T11:41:23;99564.25;;;18.77;84.36
19748;BME280;10032;51.386;12.516;2023-03-22T11:44:12;99561.97;;;18.71;84.59
19748;BME280;10032;51.386;12.516;2023-03-22T11:46:53;99559.84;;;18.68;83.18
19748;BME280;10032;51.386;12.516;2023-03-22T11:49:19;99564.53;;;18.67;84.87
19748;BME280;10032;51.386;12.516;2023-03-22T11:51:48;99563.91;;;18.70;83.42
19748;BME280;10032;51.386;12.516;2023-03-22T11:54:27;99556.34;;;18.76;83.50
19748;BME280;10032;51.386;12.516;2023-03-22T11:56:56;99557.88;;;19.07;84.05
19748;BME280;10032;51.386;12.516;2023-03-22T12:02:28;99541.19;;;19.51;82.00
19748;BME280;10032;51.386;12.516;2023-03-22T12:05:05;99540.69;;;19.41;80.37
19748;BME280;10032;51.386;12.516;2023-03-22T12:07:33;99527.59;;;19.29;80.14
19748;BME280;10032;51.386;12.516;2023-03-22T12:10:10;99537.94;;;19.32;80.07
19748;BME280;10032;51.386;12.516;2023-03-22T12:13:01;99531.59;;;19.23;78.69
19748;BME280;10032;51.386;12.516;2023-03-22T12:15:32;99528.38;;;19.21;78.69
19748;BME280;10032;51.386;12.516;2023-03-22T12:18:01;99529.03;;;19.27;77.21
19748;BME280;10032;51.386;12.516;2023-03-22T12:20:39;99518.69;;;19.49;76.95
19748;BME280;10032;51.386;12.516;2023-03-22T12:23:13;99516.13;;;19.70;77.79
19748;BME280;10032;51.386;12.516;2023-03-22T12:25:41;99523.38;;;19.74;76.75
19748;BME280;10032;51.386;12.516;2023-03-22T12:28:14;99515.00;;;19.62;75.89
19748;BME280;10032;51.386;12.516;2023-03-22T12:30:48;99507.53;;;19.54;74.80
19748;BME280;10032;51.386;12.516;2023-03-22T12:33:20;99510.28;;;19.63;74.18
19748;BME280;10032;51.386;12.516;2023-03-22T12:35:49;99508.22;;;19.51;74.29
19748;BME280;10032;51.386;12.516;2023-03-22T12:40:48;99498.16;;;19.55;73.51
19748;BME280;10032;51.386;12.516;2023-03-22T12:43:47;99494.59;;;19.63;73.72
19748;BME280;10032;51.386;12.516;2023-03-22T12:46:44;99495.66;;;20.05;73.85
19748;BME280;10032;51.386;12.516;2023-03-22T12:52:21;99482.97;;;20.38;69.81
19748;BME280;10032;51.386;12.516;2023-03-22T12:54:49;99483.84;;;20.21;70.75
19748;BME280;10032;51.386;12.516;2023-03-22T12:57:16;99493.94;;;20.46;71.46
19748;BME280;10032;51.386;12.516;2023-03-22T12:59:44;99471.66;;;20.68;69.54
19748;BME280;10032;51.386;12.516;2023-03-22T13:09:48;99476.09;;;20.81;66.93
19748;BME280;10032;51.386;12.516;2023-03-22T13:30:31;99459.91;;;20.13;62.57
19748;BME280;10032;51.386;12.516;2023-03-22T13:32:59;99446.28;;;20.25;62.84
19748;BME280;10032;51.386;12.516;2023-03-22T13:38:00;99451.66;;;20.13;59.69
19748;BME280;10032;51.386;12.516;2023-03-22T13:40:49;99444.53;;;20.12;60.50
19748;BME280;10032;51.386;12.516;2023-03-22T13:46:26;99448.50;;;20.32;60.33
19748;BME280;10032;51.386;12.516;2023-03-22T13:48:56;99445.34;;;20.50;60.66
19748;BME280;10032;51.386;12.516;2023-03-22T13:51:38;99442.56;;;20.59;60.35
19748;BME280;10032;51.386;12.516;2023-03-22T14:02:16;99424.56;;;20.32;58.33
19748;BME280;10032;51.386;12.516;2023-03-22T14:04:47;99419.56;;;20.26;59.03
19748;BME280;10032;51.386;12.516;2023-03-22T14:07:33;99427.81;;;20.26;59.63
19748;BME280;10032;51.386;12.516;2023-03-22T14:10:04;99415.84;;;20.30;59.33
19748;BME280;10032;51.386;12.516;2023-03-22T14:13:03;99423.78;;;20.23;58.69
19748;BME280;10032;51.386;12.516;2023-03-22T14:15:58;99415.75;;;20.10;58.78
19748;BME280;10032;51.386;12.516;2023-03-22T14:18:29;99427.56;;;20.10;59.98
19748;BME280;10032;51.386;12.516;2023-03-22T14:21:00;99424.31;;;20.17;58.92
19748;BME280;10032;51.386;12.516;2023-03-22T14:23:35;99416.84;;;20.17;58.38
19748;BME280;10032;51.386;12.516;2023-03-22T14:26:06;99415.19;;;20.25;59.25
19748;BME280;10032;51.386;12.516;2023-03-22T14:28:37;99416.44;;;20.36;58.83
19748;BME280;10032;51.386;12.516;2023-03-22T14:31:06;99412.34;;;20.42;58.63
19748;BME280;10032;51.386;12.516;2023-03-22T14:33:36;99407.09;;;20.28;57.77
19748;BME280;10032;51.386;12.516;2023-03-22T14:36:11;99403.91;;;20.18;56.54
19748;BME280;10032;51.386;12.516;2023-03-22T14:38:40;99399.69;;;20.20;57.91
19748;BME280;10032;51.386;12.516;2023-03-22T14:41:19;99397.13;;;20.15;57.07
19748;BME280;10032;51.386;12.516;2023-03-22T14:43:47;99408.19;;;19.98;56.60
19748;BME280;10032;51.386;12.516;2023-03-22T14:46:19;99398.31;;;19.89;56.40